sensor_id;sensor_type;location;lat;lon;timestamp;P1;durP1;ratioP1;P2;durP2;ratioP2
80270;SDS011;69573;45.560;10.200;2023-05-10T00:01:34;3.53;;;2.78;;
80270;SDS011;69573;45.560;10.200;2023-05-10T00:04:00;2.78;;;2.58;;
80270;SDS011;69573;45.560;10.200;2023-05-10T00:06:26;2.90;;;2.70;;
80270;SDS011;69573;45.560;10.200;2023-05-10T00:08:52;3.08;;;2.45;;
80270;SDS011;69573;45.560;10.200;2023-05-10T00:11:19;5.45;;;2.63;;
80270;SDS011;69573;45.560;10.200;2023-05-10T00:13:46;2.70;;;2.50;;
80270;SDS011;69573;45.560;10.200;2023-05-10T00:16:12;2.67;;;2.42;;
80270;SDS011;69573;45.560;10.200;2023-05-10T00:18:38;2.85;;;2.17;;
80270;SDS011;69573;45.560;10.200;2023-05-10T00:21:05;3.95;;;2.83;;
80270;SDS011;69573;45.560;10.200;2023-05-10T00:23:31;3.75;;;2.17;;
80270;SDS011;69573;45.560;10.200;2023-05-10T00:26:02;3.40;;;3.10;;
80270;SDS011;69573;45.560;10.200;2023-05-10T00:28:28;3.22;;;2.40;;
80270;SDS011;69573;45.560;10.200;2023-05-10T00:30:54;2.70;;;2.50;;
80270;SDS011;69573;45.560;10.200;2023-05-10T00:33:21;2.40;;;2.20;;
80270;SDS011;69573;45.560;10.200;2023-05-10T00:35:48;2.63;;;2.42;;
80270;SDS011;69573;45.560;10.200;2023-05-10T00:38:14;3.45;;;2.45;;
80270;SDS011;69573;45.560;10.200;2023-05-10T00:40:40;2.60;;;2.40;;
80270;SDS011;69573;45.560;10.200;2023-05-10T00:43:06;2.80;;;2.60;;
80270;SDS011;69573;45.560;10.200;2023-05-10T00:45:33;3.63;;;2.40;;
80270;SDS011;69573;45.560;10.200;2023-05-10T00:48:04;2.88;;;2.67;;
80270;SDS011;69573;45.560;10.200;2023-05-10T00:50:31;4.90;;;2.80;;
80270;SDS011;69573;45.560;10.200;2023-05-10T00:53:01;3.17;;;2.92;;
80270;SDS011;69573;45.560;10.200;2023-05-10T00:55:28;3.30;;;3.03;;
80270;SDS011;69573;45.560;10.200;2023-05-10T00:57:54;3.63;;;3.33;;
80270;SDS011;69573;45.560;10.200;2023-05-10T01:00:21;5.00;;;3.40;;
80270;SDS011;69573;45.560;10.200;2023-05-10T01:02:47;3.75;;;3.33;;
80270;SDS011;69573;45.560;10.200;2023-05-10T01:05:14;3.45;;;3.15;;
80270;SDS011;69573;45.560;10.200;2023-05-10T01:07:40;3.97;;;3.05;;
80270;SDS011;69573;45.560;10.200;2023-05-10T01:10:07;2.95;;;2.75;;
80270;SDS011;69573;45.560;10.200;2023-05-10T01:12:35;4.43;;;4.03;;
80270;SDS011;69573;45.560;10.200;2023-05-10T01:15:02;3.25;;;2.92;;
80270;SDS011;69573;45.560;10.200;2023-05-10T01:17:29;4.53;;;3.60;;
80270;SDS011;69573;45.560;10.200;2023-05-10T01:19:55;2.92;;;2.72;;
80270;SDS011;69573;45.560;10.200;2023-05-10T01:22:28;3.85;;;2.97;;
80270;SDS011;69573;45.560;10.200;2023-05-10T01:32:38;3.35;;;3.05;;
80270;SDS011;69573;45.560;10.200;2023-05-10T01:37:57;2.95;;;2.70;;
80270;SDS011;69573;45.560;10.200;2023-05-10T01:42:53;3.80;;;3.20;;
80270;SDS011;69573;45.560;10.200;2023-05-10T01:46:03;4.10;;;2.88;;
80270;SDS011;69573;45.560;10.200;2023-05-10T01:48:10;2.97;;;2.58;;
80270;SDS011;69573;45.560;10.200;2023-05-10T01:50:39;3.78;;;3.00;;
80270;SDS011;69573;45.560;10.200;2023-05-10T01:53:07;2.88;;;2.67;;
80270;SDS011;69573;45.560;10.200;2023-05-10T01:55:35;3.17;;;2.90;;
80270;SDS011;69573;45.560;10.200;2023-05-10T01:58:04;3.10;;;2.85;;
80270;SDS011;69573;45.560;10.200;2023-05-10T02:00:30;3.38;;;2.85;;
80270;SDS011;69573;45.560;10.200;2023-05-10T02:02:57;3.17;;;2.90;;
80270;SDS011;69573;45.560;10.200;2023-05-10T02:05:25;3.45;;;3.15;;
80270;SDS011;69573;45.560;10.200;2023-05-10T02:07:52;3.90;;;3.05;;
80270;SDS011;69573;45.560;10.200;2023-05-10T02:10:19;3.13;;;2.83;;
80270;SDS011;69573;45.560;10.200;2023-05-10T02:12:46;3.17;;;2.90;;
80270;SDS011;69573;45.560;10.200;2023-05-10T02:15:15;3.22;;;2.85;;
80270;SDS011;69573;45.560;10.200;2023-05-10T02:17:43;3.50;;;3.20;;
80270;SDS011;69573;45.560;10.200;2023-05-10T02:20:09;2.60;;;2.40;;
80270;SDS011;69573;45.560;10.200;2023-05-10T02:22:37;4.35;;;3.03;;
80270;SDS011;69573;45.560;10.200;2023-05-10T02:25:04;3.22;;;2.78;;
80270;SDS011;69573;45.560;10.200;2023-05-10T02:27:32;3.10;;;2.80;;
80270;SDS011;69573;45.560;10.200;2023-05-10T02:29:59;3.03;;;2.83;;
80270;SDS011;69573;45.560;10.200;2023-05-10T02:32:27;2.75;;;2.53;;
80270;SDS011;69573;45.560;10.200;2023-05-10T02:34:54;2.55;;;2.35;;
80270;SDS011;69573;45.560;10.200;2023-05-10T02:37:20;3.35;;;2.92;;
80270;SDS011;69573;45.560;10.200;2023-05-10T02:39:48;2.90;;;2.60;;
80270;SDS011;69573;45.560;10.200;2023-05-10T02:42:18;3.47;;;2.88;;
80270;SDS011;69573;45.560;10.200;2023-05-10T02:44:47;5.88;;;2.70;;
80270;SDS011;69573;45.560;10.200;2023-05-10T02:47:14;3.60;;;2.63;;
80270;SDS011;69573;45.560;10.200;2023-05-10T02:49:40;2.78;;;2.25;;
80270;SDS011;69573;45.560;10.200;2023-05-10T02:52:07;2.80;;;2.60;;
80270;SDS011;69573;45.560;10.200;2023-05-10T02:54:41;2.45;;;2.25;;
80270;SDS011;69573;45.560;10.200;2023-05-10T02:57:11;2.80;;;2.50;;
80270;SDS011;69573;45.560;10.200;2023-05-10T02:59:41;2.42;;;2.20;;
80270;SDS011;69573;45.560;10.200;2023-05-10T03:02:08;3.47;;;2.55;;
80270;SDS011;69573;45.560;10.200;2023-05-10T03:04:35;2.70;;;2.47;;
80270;SDS011;69573;45.560;10.200;2023-05-10T03:07:01;2.55;;;2.35;;
80270;SDS011;69573;45.560;10.200;2023-05-10T03:09:28;2.58;;;2.35;;
80270;SDS011;69573;45.560;10.200;2023-05-10T03:17:30;2.35;;;2.17;;
80270;SDS011;69573;45.560;10.200;2023-05-10T03:19:57;2.45;;;2.30;;
80270;SDS011;69573;45.560;10.200;2023-05-10T03:22:25;2.53;;;2.33;;
80270;SDS011;69573;45.560;10.200;2023-05-10T03:24:55;2.47;;;2.35;;
80270;SDS011;69573;45.560;10.200;2023-05-10T03:27:26;2.70;;;2.50;;
80270;SDS011;69573;45.560;10.200;2023-05-10T03:29:53;3.60;;;2.30;;
80270;SDS011;69573;45.560;10.200;2023-05-10T03:32:19;2.60;;;2.40;;
80270;SDS011;69573;45.560;10.200;2023-05-10T03:34:46;2.92;;;2.72;;
80270;SDS011;69573;45.560;10.200;2023-05-10T03:37:15;4.03;;;3.63;;
80270;SDS011;69573;45.560;10.200;2023-05-10T03:39:41;3.43;;;3.07;;
80270;SDS011;69573;45.560;10.200;2023-05-10T03:42:07;4.57;;;2.95;;
80270;SDS011;69573;45.560;10.200;2023-05-10T03:44:36;2.88;;;2.67;;
80270;SDS011;69573;45.560;10.200;2023-05-10T03:47:03;3.20;;;2.90;;
80270;SDS011;69573;45.560;10.200;2023-05-10T03:49:29;3.38;;;2.95;;
80270;SDS011;69573;45.560;10.200;2023-05-10T03:51:56;3.45;;;3.17;;
80270;SDS011;69573;45.560;10.200;2023-05-10T03:54:22;4.32;;;2.75;;
80270;SDS011;69573;45.560;10.200;2023-05-10T03:56:49;3.10;;;2.90;;
80270;SDS011;69573;45.560;10.200;2023-05-10T03:59:15;3.00;;;2.80;;
80270;SDS011;69573;45.560;10.200;2023-05-10T04:01:41;3.28;;;2.97;;
80270;SDS011;69573;45.560;10.200;2023-05-10T04:04:08;3.33;;;2.50;;
80270;SDS011;69573;45.560;10.200;2023-05-10T04:06:34;4.53;;;2.65;;
80270;SDS011;69573;45.560;10.200;2023-05-10T04:09:01;4.28;;;3.22;;
80270;SDS011;69573;45.560;10.200;2023-05-10T04:11:29;2.83;;;2.63;;
80270;SDS011;69573;45.560;10.200;2023-05-10T04:13:56;3.20;;;2.80;;
80270;SDS011;69573;45.560;10.200;2023-05-10T04:16:22;2.72;;;2.53;;
80270;SDS011;69573;45.560;10.200;2023-05-10T04:18:48;3.65;;;3.30;;
80270;SDS011;69573;45.560;10.200;2023-05-10T04:21:15;3.60;;;2.97;;
80270;SDS011;69573;45.560;10.200;2023-05-10T04:23:41;3.45;;;3.00;;
80270;SDS011;69573;45.560;10.200;2023-05-10T04:26:07;4.47;;;3.53;;
80270;SDS011;69573;45.560;10.200;2023-05-10T04:28:33;3.60;;;3.00;;
80270;SDS011;69573;45.560;10.200;2023-05-10T04:31:03;3.42;;;3.13;;
80270;SDS011;69573;45.560;10.200;2023-05-10T04:33:30;2.90;;;2.70;;
80270;SDS011;69573;45.560;10.200;2023-05-10T04:35:59;5.57;;;3.30;;
80270;SDS011;69573;45.560;10.200;2023-05-10T04:38:25;3.58;;;3.28;;
80270;SDS011;69573;45.560;10.200;2023-05-10T04:40:52;3.63;;;3.28;;
80270;SDS011;69573;45.560;10.200;2023-05-10T04:43:18;3.90;;;3.40;;
80270;SDS011;69573;45.560;10.200;2023-05-10T04:45:45;3.75;;;3.05;;
80270;SDS011;69573;45.560;10.200;2023-05-10T04:48:11;3.15;;;2.95;;
80270;SDS011;69573;45.560;10.200;2023-05-10T04:50:38;3.25;;;2.95;;
80270;SDS011;69573;45.560;10.200;2023-05-10T04:53:05;3.25;;;2.95;;
80270;SDS011;69573;45.560;10.200;2023-05-10T04:55:31;3.78;;;3.47;;
80270;SDS011;69573;45.560;10.200;2023-05-10T04:57:57;3.80;;;3.40;;
80270;SDS011;69573;45.560;10.200;2023-05-10T05:00:24;3.63;;;3.33;;
80270;SDS011;69573;45.560;10.200;2023-05-10T05:02:50;3.75;;;3.20;;
80270;SDS011;69573;45.560;10.200;2023-05-10T05:05:17;3.88;;;3.55;;
80270;SDS011;69573;45.560;10.200;2023-05-10T05:07:43;3.70;;;3.40;;
80270;SDS011;69573;45.560;10.200;2023-05-10T05:10:09;3.33;;;2.95;;
80270;SDS011;69573;45.560;10.200;2023-05-10T05:12:35;3.10;;;2.85;;
80270;SDS011;69573;45.560;10.200;2023-05-10T05:15:02;3.35;;;3.05;;
80270;SDS011;69573;45.560;10.200;2023-05-10T05:17:29;4.43;;;3.50;;
80270;SDS011;69573;45.560;10.200;2023-05-10T05:19:56;5.22;;;3.47;;
80270;SDS011;69573;45.560;10.200;2023-05-10T05:22:23;3.83;;;3.53;;
80270;SDS011;69573;45.560;10.200;2023-05-10T05:24:53;4.00;;;3.70;;
80270;SDS011;69573;45.560;10.200;2023-05-10T05:27:19;4.75;;;4.30;;
80270;SDS011;69573;45.560;10.200;2023-05-10T05:29:49;4.85;;;4.18;;
80270;SDS011;69573;45.560;10.200;2023-05-10T05:32:15;4.25;;;3.88;;
80270;SDS011;69573;45.560;10.200;2023-05-10T05:34:44;4.55;;;4.15;;
80270;SDS011;69573;45.560;10.200;2023-05-10T05:37:17;6.85;;;4.90;;
80270;SDS011;69573;45.560;10.200;2023-05-10T05:39:43;5.18;;;4.68;;
80270;SDS011;69573;45.560;10.200;2023-05-10T05:42:10;4.72;;;4.28;;
80270;SDS011;69573;45.560;10.200;2023-05-10T05:44:37;4.85;;;4.45;;
80270;SDS011;69573;45.560;10.200;2023-05-10T05:47:03;4.68;;;4.22;;
80270;SDS011;69573;45.560;10.200;2023-05-10T05:49:30;5.18;;;4.70;;
80270;SDS011;69573;45.560;10.200;2023-05-10T05:52:00;4.97;;;4.57;;
80270;SDS011;69573;45.560;10.200;2023-05-10T05:54:27;6.35;;;5.80;;
80270;SDS011;69573;45.560;10.200;2023-05-10T05:56:54;6.10;;;5.53;;
80270;SDS011;69573;45.560;10.200;2023-05-10T05:59:20;6.40;;;5.80;;
80270;SDS011;69573;45.560;10.200;2023-05-10T06:01:46;8.43;;;6.20;;
80270;SDS011;69573;45.560;10.200;2023-05-10T06:04:12;6.75;;;6.05;;
80270;SDS011;69573;45.560;10.200;2023-05-10T06:06:39;7.35;;;6.63;;
80270;SDS011;69573;45.560;10.200;2023-05-10T06:09:06;7.05;;;6.35;;
80270;SDS011;69573;45.560;10.200;2023-05-10T06:11:32;7.10;;;6.32;;
80270;SDS011;69573;45.560;10.200;2023-05-10T06:13:58;5.90;;;5.40;;
80270;SDS011;69573;45.560;10.200;2023-05-10T06:16:25;7.22;;;6.50;;
80270;SDS011;69573;45.560;10.200;2023-05-10T06:18:51;7.15;;;6.45;;
80270;SDS011;69573;45.560;10.200;2023-05-10T06:21:18;7.97;;;6.95;;
80270;SDS011;69573;45.560;10.200;2023-05-10T06:23:44;7.68;;;7.00;;
80270;SDS011;69573;45.560;10.200;2023-05-10T06:26:11;8.63;;;7.13;;
80270;SDS011;69573;45.560;10.200;2023-05-10T06:28:38;8.55;;;6.63;;
80270;SDS011;69573;45.560;10.200;2023-05-10T06:31:05;6.10;;;5.55;;
80270;SDS011;69573;45.560;10.200;2023-05-10T06:33:31;7.53;;;6.35;;
80270;SDS011;69573;45.560;10.200;2023-05-10T06:35:58;6.40;;;5.80;;
80270;SDS011;69573;45.560;10.200;2023-05-10T06:38:24;8.02;;;6.40;;
80270;SDS011;69573;45.560;10.200;2023-05-10T06:40:50;7.38;;;6.68;;
80270;SDS011;69573;45.560;10.200;2023-05-10T06:43:17;7.72;;;6.97;;
80270;SDS011;69573;45.560;10.200;2023-05-10T06:45:43;8.32;;;7.00;;
80270;SDS011;69573;45.560;10.200;2023-05-10T06:48:10;9.38;;;7.90;;
80270;SDS011;69573;45.560;10.200;2023-05-10T06:50:36;10.27;;;7.80;;
80270;SDS011;69573;45.560;10.200;2023-05-10T06:53:03;9.13;;;7.90;;
80270;SDS011;69573;45.560;10.200;2023-05-10T06:55:29;10.35;;;8.18;;
80270;SDS011;69573;45.560;10.200;2023-05-10T06:57:55;8.70;;;7.78;;
80270;SDS011;69573;45.560;10.200;2023-05-10T07:00:21;8.57;;;7.78;;
80270;SDS011;69573;45.560;10.200;2023-05-10T07:02:48;8.60;;;7.72;;
80270;SDS011;69573;45.560;10.200;2023-05-10T07:05:14;9.00;;;8.10;;
80270;SDS011;69573;45.560;10.200;2023-05-10T07:07:40;8.00;;;7.20;;
80270;SDS011;69573;45.560;10.200;2023-05-10T07:10:07;8.25;;;7.45;;
80270;SDS011;69573;45.560;10.200;2023-05-10T07:12:33;8.15;;;7.45;;
80270;SDS011;69573;45.560;10.200;2023-05-10T07:14:59;8.68;;;7.30;;
80270;SDS011;69573;45.560;10.200;2023-05-10T07:17:26;9.35;;;7.97;;
80270;SDS011;69573;45.560;10.200;2023-05-10T07:19:52;8.48;;;7.68;;
80270;SDS011;69573;45.560;10.200;2023-05-10T07:22:18;8.70;;;7.90;;
80270;SDS011;69573;45.560;10.200;2023-05-10T07:24:45;10.75;;;8.13;;
80270;SDS011;69573;45.560;10.200;2023-05-10T07:27:11;10.43;;;8.18;;
80270;SDS011;69573;45.560;10.200;2023-05-10T07:29:38;9.75;;;7.72;;
80270;SDS011;69573;45.560;10.200;2023-05-10T07:32:04;9.10;;;7.75;;
80270;SDS011;69573;45.560;10.200;2023-05-10T07:34:32;10.65;;;8.13;;
80270;SDS011;69573;45.560;10.200;2023-05-10T07:36:58;9.32;;;8.43;;
80270;SDS011;69573;45.560;10.200;2023-05-10T07:39:25;9.52;;;8.63;;
80270;SDS011;69573;45.560;10.200;2023-05-10T07:41:52;8.63;;;7.82;;
80270;SDS011;69573;45.560;10.200;2023-05-10T07:44:22;9.70;;;8.32;;
80270;SDS011;69573;45.560;10.200;2023-05-10T07:46:48;11.20;;;8.35;;
80270;SDS011;69573;45.560;10.200;2023-05-10T07:49:14;8.93;;;7.85;;
80270;SDS011;69573;45.560;10.200;2023-05-10T07:51:40;10.20;;;8.18;;
80270;SDS011;69573;45.560;10.200;2023-05-10T07:54:07;9.65;;;8.52;;
80270;SDS011;69573;45.560;10.200;2023-05-10T07:56:33;10.15;;;9.15;;
80270;SDS011;69573;45.560;10.200;2023-05-10T07:59:00;9.65;;;8.75;;
80270;SDS011;69573;45.560;10.200;2023-05-10T08:01:26;10.23;;;9.30;;
80270;SDS011;69573;45.560;10.200;2023-05-10T08:03:53;11.48;;;8.85;;
80270;SDS011;69573;45.560;10.200;2023-05-10T08:06:20;8.95;;;8.05;;
80270;SDS011;69573;45.560;10.200;2023-05-10T08:08:47;8.77;;;7.88;;
80270;SDS011;69573;45.560;10.200;2023-05-10T08:11:19;9.75;;;8.85;;
80270;SDS011;69573;45.560;10.200;2023-05-10T08:16:11;9.65;;;8.40;;
80270;SDS011;69573;45.560;10.200;2023-05-10T08:18:38;8.38;;;7.60;;
80270;SDS011;69573;45.560;10.200;2023-05-10T08:21:04;10.02;;;9.02;;
80270;SDS011;69573;45.560;10.200;2023-05-10T08:23:30;9.25;;;8.35;;
80270;SDS011;69573;45.560;10.200;2023-05-10T08:25:57;9.27;;;8.45;;
80270;SDS011;69573;45.560;10.200;2023-05-10T08:28:23;8.40;;;7.70;;
80270;SDS011;69573;45.560;10.200;2023-05-10T08:30:49;8.57;;;7.78;;
80270;SDS011;69573;45.560;10.200;2023-05-10T08:33:17;8.32;;;7.53;;
80270;SDS011;69573;45.560;10.200;2023-05-10T08:35:43;7.53;;;6.82;;
80270;SDS011;69573;45.560;10.200;2023-05-10T08:38:09;7.90;;;7.18;;
80270;SDS011;69573;45.560;10.200;2023-05-10T08:40:42;9.05;;;8.18;;
80270;SDS011;69573;45.560;10.200;2023-05-10T08:43:09;8.65;;;7.85;;
80270;SDS011;69573;45.560;10.200;2023-05-10T08:45:37;8.23;;;7.43;;
80270;SDS011;69573;45.560;10.200;2023-05-10T08:48:05;7.85;;;7.05;;
80270;SDS011;69573;45.560;10.200;2023-05-10T08:50:31;7.82;;;7.03;;
80270;SDS011;69573;45.560;10.200;2023-05-10T08:52:59;7.57;;;6.88;;
80270;SDS011;69573;45.560;10.200;2023-05-10T08:55:26;7.45;;;6.75;;
80270;SDS011;69573;45.560;10.200;2023-05-10T08:57:53;6.93;;;6.32;;
80270;SDS011;69573;45.560;10.200;2023-05-10T09:00:19;6.35;;;5.85;;
80270;SDS011;69573;45.560;10.200;2023-05-10T09:02:49;7.07;;;6.43;;
80270;SDS011;69573;45.560;10.200;2023-05-10T09:05:15;7.30;;;6.53;;
80270;SDS011;69573;45.560;10.200;2023-05-10T09:07:42;7.55;;;6.88;;
80270;SDS011;69573;45.560;10.200;2023-05-10T09:10:09;7.20;;;6.60;;
80270;SDS011;69573;45.560;10.200;2023-05-10T09:12:37;7.13;;;6.43;;
80270;SDS011;69573;45.560;10.200;2023-05-10T09:15:03;7.05;;;6.45;;
80270;SDS011;69573;45.560;10.200;2023-05-10T09:17:32;7.18;;;6.00;;
80270;SDS011;69573;45.560;10.200;2023-05-10T09:20:00;6.35;;;5.85;;
80270;SDS011;69573;45.560;10.200;2023-05-10T09:22:26;5.82;;;5.32;;
80270;SDS011;69573;45.560;10.200;2023-05-10T09:25:06;5.60;;;5.10;;
80270;SDS011;69573;45.560;10.200;2023-05-10T09:27:32;6.03;;;5.47;;
80270;SDS011;69573;45.560;10.200;2023-05-10T09:29:58;6.13;;;5.63;;
80270;SDS011;69573;45.560;10.200;2023-05-10T09:35:23;6.25;;;5.70;;
80270;SDS011;69573;45.560;10.200;2023-05-10T09:37:51;5.15;;;4.75;;
80270;SDS011;69573;45.560;10.200;2023-05-10T09:40:25;5.32;;;4.82;;
80270;SDS011;69573;45.560;10.200;2023-05-10T09:42:52;5.13;;;4.72;;
80270;SDS011;69573;45.560;10.200;2023-05-10T09:45:19;5.95;;;5.35;;
80270;SDS011;69573;45.560;10.200;2023-05-10T09:47:46;5.47;;;5.00;;
80270;SDS011;69573;45.560;10.200;2023-05-10T09:50:12;5.93;;;5.43;;
80270;SDS011;69573;45.560;10.200;2023-05-10T09:52:51;5.03;;;4.63;;
80270;SDS011;69573;45.560;10.200;2023-05-10T09:55:19;5.03;;;4.63;;
80270;SDS011;69573;45.560;10.200;2023-05-10T09:57:46;5.32;;;4.70;;
80270;SDS011;69573;45.560;10.200;2023-05-10T10:00:36;5.57;;;4.55;;
80270;SDS011;69573;45.560;10.200;2023-05-10T10:03:02;5.28;;;4.85;;
80270;SDS011;69573;45.560;10.200;2023-05-10T10:05:29;4.90;;;4.40;;
80270;SDS011;69573;45.560;10.200;2023-05-10T10:07:56;4.28;;;3.97;;
80270;SDS011;69573;45.560;10.200;2023-05-10T10:10:26;4.75;;;4.35;;
80270;SDS011;69573;45.560;10.200;2023-05-10T10:12:53;4.68;;;4.28;;
80270;SDS011;69573;45.560;10.200;2023-05-10T10:15:20;4.93;;;4.50;;
80270;SDS011;69573;45.560;10.200;2023-05-10T10:17:46;4.40;;;3.97;;
80270;SDS011;69573;45.560;10.200;2023-05-10T10:20:14;4.63;;;4.22;;
80270;SDS011;69573;45.560;10.200;2023-05-10T10:22:41;4.45;;;4.05;;
80270;SDS011;69573;45.560;10.200;2023-05-10T10:25:09;4.68;;;4.38;;
80270;SDS011;69573;45.560;10.200;2023-05-10T10:27:43;4.93;;;4.43;;
80270;SDS011;69573;45.560;10.200;2023-05-10T10:30:35;5.25;;;4.85;;
80270;SDS011;69573;45.560;10.200;2023-05-10T10:35:30;5.80;;;5.30;;
80270;SDS011;69573;45.560;10.200;2023-05-10T10:37:57;5.38;;;4.90;;
80270;SDS011;69573;45.560;10.200;2023-05-10T10:40:30;5.47;;;5.03;;
80270;SDS011;69573;45.560;10.200;2023-05-10T10:42:57;5.82;;;4.82;;
80270;SDS011;69573;45.560;10.200;2023-05-10T10:45:24;4.68;;;4.28;;
80270;SDS011;69573;45.560;10.200;2023-05-10T10:48:24;5.40;;;4.90;;
80270;SDS011;69573;45.560;10.200;2023-05-10T10:50:44;5.63;;;5.13;;
80270;SDS011;69573;45.560;10.200;2023-05-10T10:53:11;5.38;;;4.97;;
80270;SDS011;69573;45.560;10.200;2023-05-10T10:55:45;6.50;;;6.00;;
80270;SDS011;69573;45.560;10.200;2023-05-10T10:58:16;5.63;;;5.13;;
80270;SDS011;69573;45.560;10.200;2023-05-10T11:01:08;6.30;;;5.55;;
80270;SDS011;69573;45.560;10.200;2023-05-10T11:03:35;6.63;;;6.03;;
80270;SDS011;69573;45.560;10.200;2023-05-10T11:06:01;9.90;;;6.07;;
80270;SDS011;69573;45.560;10.200;2023-05-10T11:08:28;7.20;;;6.50;;
80270;SDS011;69573;45.560;10.200;2023-05-10T11:15:58;6.90;;;6.30;;
80270;SDS011;69573;45.560;10.200;2023-05-10T11:18:26;6.68;;;5.72;;
80270;SDS011;69573;45.560;10.200;2023-05-10T11:20:52;6.90;;;6.40;;
80270;SDS011;69573;45.560;10.200;2023-05-10T11:23:21;6.95;;;6.32;;
80270;SDS011;69573;45.560;10.200;2023-05-10T11:25:47;7.80;;;6.28;;
80270;SDS011;69573;45.560;10.200;2023-05-10T11:28:16;7.38;;;6.72;;
80270;SDS011;69573;45.560;10.200;2023-05-10T11:30:43;7.88;;;7.18;;
80270;SDS011;69573;45.560;10.200;2023-05-10T11:33:09;8.23;;;7.53;;
80270;SDS011;69573;45.560;10.200;2023-05-10T11:35:40;8.50;;;7.70;;
80270;SDS011;69573;45.560;10.200;2023-05-10T11:38:10;9.00;;;8.18;;
80270;SDS011;69573;45.560;10.200;2023-05-10T11:40:37;6.93;;;6.32;;
80270;SDS011;69573;45.560;10.200;2023-05-10T11:43:04;6.80;;;6.20;;
80270;SDS011;69573;45.560;10.200;2023-05-10T11:45:34;6.80;;;6.20;;
80270;SDS011;69573;45.560;10.200;2023-05-10T11:48:00;6.88;;;6.28;;
80270;SDS011;69573;45.560;10.200;2023-05-10T11:50:27;9.38;;;6.55;;
80270;SDS011;69573;45.560;10.200;2023-05-10T11:52:54;7.57;;;6.95;;
80270;SDS011;69573;45.560;10.200;2023-05-10T11:55:20;7.65;;;7.00;;
80270;SDS011;69573;45.560;10.200;2023-05-10T11:57:47;10.00;;;9.10;;
80270;SDS011;69573;45.560;10.200;2023-05-10T12:00:13;9.05;;;8.25;;
80270;SDS011;69573;45.560;10.200;2023-05-10T12:02:40;10.20;;;9.25;;
80270;SDS011;69573;45.560;10.200;2023-05-10T12:05:06;9.77;;;8.88;;
80270;SDS011;69573;45.560;10.200;2023-05-10T12:07:32;11.80;;;10.70;;
80270;SDS011;69573;45.560;10.200;2023-05-10T12:10:03;11.27;;;10.07;;
80270;SDS011;69573;45.560;10.200;2023-05-10T12:12:45;7.75;;;7.05;;
80270;SDS011;69573;45.560;10.200;2023-05-10T12:15:21;8.02;;;7.35;;
80270;SDS011;69573;45.560;10.200;2023-05-10T12:17:55;10.27;;;9.38;;
80270;SDS011;69573;45.560;10.200;2023-05-10T12:20:23;9.95;;;9.07;;
80270;SDS011;69573;45.560;10.200;2023-05-10T12:22:50;10.45;;;9.20;;
80270;SDS011;69573;45.560;10.200;2023-05-10T12:25:17;10.00;;;9.10;;
80270;SDS011;69573;45.560;10.200;2023-05-10T12:27:48;9.05;;;8.25;;
80270;SDS011;69573;45.560;10.200;2023-05-10T12:30:18;8.88;;;8.18;;
80270;SDS011;69573;45.560;10.200;2023-05-10T12:32:45;9.80;;;8.88;;
80270;SDS011;69573;45.560;10.200;2023-05-10T12:35:11;9.90;;;9.10;;
80270;SDS011;69573;45.560;10.200;2023-05-10T12:37:37;8.80;;;8.10;;
80270;SDS011;69573;45.560;10.200;2023-05-10T12:40:08;9.63;;;8.82;;
80270;SDS011;69573;45.560;10.200;2023-05-10T12:42:34;10.35;;;9.45;;
80270;SDS011;69573;45.560;10.200;2023-05-10T12:45:01;9.68;;;8.88;;
80270;SDS011;69573;45.560;10.200;2023-05-10T12:47:28;9.75;;;8.95;;
80270;SDS011;69573;45.560;10.200;2023-05-10T12:49:54;11.00;;;10.00;;
80270;SDS011;69573;45.560;10.200;2023-05-10T12:52:20;9.73;;;8.93;;
80270;SDS011;69573;45.560;10.200;2023-05-10T12:54:47;9.77;;;8.88;;
80270;SDS011;69573;45.560;10.200;2023-05-10T12:57:14;9.52;;;8.73;;
80270;SDS011;69573;45.560;10.200;2023-05-10T12:59:40;9.40;;;8.50;;
80270;SDS011;69573;45.560;10.200;2023-05-10T13:02:07;8.70;;;7.90;;
80270;SDS011;69573;45.560;10.200;2023-05-10T13:04:33;9.82;;;9.00;;
80270;SDS011;69573;45.560;10.200;2023-05-10T13:07:00;9.80;;;9.00;;
80270;SDS011;69573;45.560;10.200;2023-05-10T13:09:26;10.60;;;9.70;;
80270;SDS011;69573;45.560;10.200;2023-05-10T13:11:54;9.43;;;8.60;;
80270;SDS011;69573;45.560;10.200;2023-05-10T13:14:20;7.63;;;7.03;;
80270;SDS011;69573;45.560;10.200;2023-05-10T13:16:47;7.32;;;6.72;;
80270;SDS011;69573;45.560;10.200;2023-05-10T13:19:13;6.90;;;6.40;;
80270;SDS011;69573;45.560;10.200;2023-05-10T13:21:39;7.05;;;6.20;;
80270;SDS011;69573;45.560;10.200;2023-05-10T13:24:09;7.15;;;6.57;;
80270;SDS011;69573;45.560;10.200;2023-05-10T13:26:36;5.72;;;5.20;;
80270;SDS011;69573;45.560;10.200;2023-05-10T13:29:02;5.68;;;5.20;;
80270;SDS011;69573;45.560;10.200;2023-05-10T13:31:28;5.80;;;5.25;;
80270;SDS011;69573;45.560;10.200;2023-05-10T13:33:55;7.13;;;6.63;;
80270;SDS011;69573;45.560;10.200;2023-05-10T13:36:22;6.88;;;6.28;;
80270;SDS011;69573;45.560;10.200;2023-05-10T13:38:48;6.75;;;6.25;;
80270;SDS011;69573;45.560;10.200;2023-05-10T13:41:14;8.25;;;7.65;;
80270;SDS011;69573;45.560;10.200;2023-05-10T13:43:41;9.63;;;8.73;;
80270;SDS011;69573;45.560;10.200;2023-05-10T13:46:08;10.77;;;9.05;;
80270;SDS011;69573;45.560;10.200;2023-05-10T13:48:34;8.00;;;7.35;;
80270;SDS011;69573;45.560;10.200;2023-05-10T13:51:02;7.70;;;7.10;;
80270;SDS011;69573;45.560;10.200;2023-05-10T13:53:28;6.35;;;5.85;;
80270;SDS011;69573;45.560;10.200;2023-05-10T13:55:55;6.13;;;5.63;;
80270;SDS011;69573;45.560;10.200;2023-05-10T13:58:22;5.75;;;5.22;;
80270;SDS011;69573;45.560;10.200;2023-05-10T14:00:48;6.50;;;5.90;;
80270;SDS011;69573;45.560;10.200;2023-05-10T14:03:15;6.57;;;6.00;;
80270;SDS011;69573;45.560;10.200;2023-05-10T14:05:41;6.13;;;5.63;;
80270;SDS011;69573;45.560;10.200;2023-05-10T14:08:07;6.03;;;5.53;;
80270;SDS011;69573;45.560;10.200;2023-05-10T14:10:34;5.85;;;5.35;;
80270;SDS011;69573;45.560;10.200;2023-05-10T14:13:01;6.63;;;6.13;;
80270;SDS011;69573;45.560;10.200;2023-05-10T14:15:28;6.50;;;5.68;;
80270;SDS011;69573;45.560;10.200;2023-05-10T14:17:54;6.80;;;6.30;;
80270;SDS011;69573;45.560;10.200;2023-05-10T14:20:21;6.68;;;6.10;;
80270;SDS011;69573;45.560;10.200;2023-05-10T14:22:48;6.70;;;6.20;;
80270;SDS011;69573;45.560;10.200;2023-05-10T14:25:14;9.60;;;8.85;;
80270;SDS011;69573;45.560;10.200;2023-05-10T14:27:40;10.10;;;9.20;;
80270;SDS011;69573;45.560;10.200;2023-05-10T14:30:07;9.90;;;9.10;;
80270;SDS011;69573;45.560;10.200;2023-05-10T14:32:35;9.57;;;8.73;;
80270;SDS011;69573;45.560;10.200;2023-05-10T14:35:01;8.23;;;7.53;;
80270;SDS011;69573;45.560;10.200;2023-05-10T14:37:28;8.30;;;7.60;;
80270;SDS011;69573;45.560;10.200;2023-05-10T14:39:54;8.10;;;7.40;;
80270;SDS011;69573;45.560;10.200;2023-05-10T14:42:21;7.75;;;7.05;;
80270;SDS011;69573;45.560;10.200;2023-05-10T14:44:48;8.73;;;8.10;;
80270;SDS011;69573;45.560;10.200;2023-05-10T14:47:14;9.00;;;8.30;;
80270;SDS011;69573;45.560;10.200;2023-05-10T14:49:40;8.77;;;8.05;;
80270;SDS011;69573;45.560;10.200;2023-05-10T14:52:07;8.82;;;8.07;;
80270;SDS011;69573;45.560;10.200;2023-05-10T14:54:33;8.90;;;8.18;;
80270;SDS011;69573;45.560;10.200;2023-05-10T14:56:59;10.18;;;9.27;;
80270;SDS011;69573;45.560;10.200;2023-05-10T14:59:25;11.27;;;10.27;;
80270;SDS011;69573;45.560;10.200;2023-05-10T15:01:52;12.07;;;11.05;;
80270;SDS011;69573;45.560;10.200;2023-05-10T15:04:18;9.45;;;8.65;;
80270;SDS011;69573;45.560;10.200;2023-05-10T15:06:47;7.75;;;7.05;;